createdAt,value
2023-04-22T00:00:21.906Z,10.70
2023-04-22T00:02:49.226Z,10.80
2023-04-22T00:05:20.475Z,11.30
2023-04-22T00:07:47.622Z,11.00
2023-04-22T00:10:14.985Z,11.10
2023-04-22T00:12:42.249Z,11.10
2023-04-22T00:15:09.857Z,10.70
2023-04-22T00:17:55.634Z,10.60
2023-04-22T00:20:25.819Z,10.30
2023-04-22T00:22:53.038Z,10.10
2023-04-22T00:25:22.627Z,10.20
2023-04-22T00:27:49.963Z,10.90
2023-04-22T00:30:16.912Z,10.10
2023-04-22T00:32:44.203Z,11.10
2023-04-22T00:35:11.105Z,10.70
2023-04-22T00:37:40.928Z,9.60
2023-04-22T00:40:08.451Z,10.60
2023-04-22T00:42:37.327Z,9.70
2023-04-22T00:45:06.770Z,9.80
2023-04-22T00:47:36.434Z,9.50
2023-04-22T00:50:08.884Z,9.60
2023-04-22T00:52:36.294Z,9.40
2023-04-22T00:55:03.789Z,10.30
2023-04-22T00:57:34.779Z,9.50
2023-04-22T01:00:02.399Z,9.40
2023-04-22T01:02:30.285Z,10.20
2023-04-22T01:04:57.583Z,10.00
2023-04-22T01:07:24.517Z,10.20
2023-04-22T01:09:54.251Z,9.10
2023-04-22T01:12:21.005Z,9.30
2023-04-22T01:14:48.240Z,8.80
2023-04-22T01:17:17.208Z,9.20
2023-04-22T01:19:44.560Z,9.30
2023-04-22T01:22:14.226Z,8.90
2023-04-22T01:24:41.868Z,9.30
2023-04-22T01:27:09.092Z,8.50
2023-04-22T01:29:38.426Z,9.30
2023-04-22T01:32:05.975Z,8.90
2023-04-22T01:34:33.259Z,8.90
2023-04-22T01:37:03.512Z,8.80
2023-04-22T01:39:31.121Z,8.90
2023-04-22T01:41:59.124Z,8.80
2023-04-22T01:44:27.302Z,8.80
2023-04-22T01:46:55.512Z,8.80
2023-04-22T01:49:22.793Z,9.00
2023-04-22T01:51:49.628Z,9.90
2023-04-22T01:54:17.048Z,8.70
2023-04-22T01:56:51.250Z,9.50
2023-04-22T01:59:18.433Z,8.60
2023-04-22T02:01:48.339Z,9.20
2023-04-22T02:04:15.971Z,9.10
2023-04-22T02:06:44.019Z,8.50
2023-04-22T02:09:11.162Z,8.40
2023-04-22T02:11:40.323Z,8.50
2023-04-22T02:14:07.136Z,8.70
2023-04-22T02:16:33.975Z,8.60
2023-04-22T02:19:01.410Z,8.70
2023-04-22T02:21:34.811Z,8.60
2023-04-22T02:24:04.007Z,8.60
2023-04-22T02:26:30.898Z,8.60
2023-04-22T02:28:58.182Z,8.90
2023-04-22T02:31:25.309Z,8.70
2023-04-22T02:33:53.725Z,8.40
2023-04-22T02:36:22.427Z,8.40
2023-04-22T02:38:52.398Z,8.10
2023-04-22T02:41:30.815Z,8.60
2023-04-22T02:43:58.507Z,8.80
2023-04-22T02:46:29.492Z,7.90
2023-04-22T02:48:56.721Z,7.70
2023-04-22T02:51:25.040Z,8.30
2023-04-22T02:53:51.778Z,8.30
2023-04-22T02:56:19.378Z,8.30
2023-04-22T02:58:49.686Z,8.50
2023-04-22T03:01:18.787Z,8.40
2023-04-22T03:03:46.205Z,8.10
2023-04-22T03:06:15.620Z,8.50
2023-04-22T03:08:42.391Z,8.40
2023-04-22T03:11:09.593Z,8.50
2023-04-22T03:13:37.885Z,8.60
2023-04-22T03:16:06.909Z,8.60
2023-04-22T03:18:35.365Z,8.60
2023-04-22T03:21:08.287Z,8.60
2023-04-22T03:23:35.478Z,8.60
2023-04-22T03:26:03.062Z,8.50
2023-04-22T03:28:29.994Z,8.40
2023-04-22T03:30:57.682Z,8.60
2023-04-22T03:33:27.746Z,8.00
2023-04-22T03:35:56.094Z,8.00
2023-04-22T03:38:23.624Z,8.90
2023-04-22T03:40:53.490Z,7.80
2023-04-22T03:43:20.679Z,8.10
2023-04-22T03:45:53.502Z,7.90
2023-04-22T03:48:20.727Z,8.20
2023-04-22T03:50:51.328Z,9.30
2023-04-22T03:53:24.101Z,8.60
2023-04-22T03:55:55.483Z,8.40
2023-04-22T03:58:39.498Z,8.90
2023-04-22T04:01:16.279Z,8.50
2023-04-22T04:03:45.903Z,8.60
2023-04-22T04:06:16.189Z,8.70
2023-04-22T04:08:47.182Z,8.60
2023-04-22T04:11:25.218Z,8.20
2023-04-22T04:14:03.492Z,8.70
2023-04-22T04:16:39.226Z,8.40
2023-04-22T04:19:07.021Z,9.40
2023-04-22T04:21:37.597Z,9.10
2023-04-22T04:24:06.625Z,9.30
2023-04-22T04:26:34.685Z,8.90
2023-04-22T04:29:02.352Z,9.50
2023-04-22T04:31:32.521Z,8.80
2023-04-22T04:33:59.855Z,8.90
2023-04-22T04:36:29.502Z,9.40
2023-04-22T04:38:57.707Z,9.50
2023-04-22T04:41:27.194Z,10.00
2023-04-22T04:44:01.364Z,10.10
2023-04-22T04:46:33.058Z,10.20
2023-04-22T04:49:01.806Z,10.40
2023-04-22T04:51:31.835Z,10.20
2023-04-22T04:54:01.835Z,11.00
2023-04-22T04:56:29.223Z,10.50
2023-04-22T04:58:56.573Z,10.00
2023-04-22T05:01:24.000Z,10.80
2023-04-22T05:03:51.695Z,10.70
2023-04-22T05:06:21.044Z,10.90
2023-04-22T05:08:49.748Z,11.20
2023-04-22T05:11:17.356Z,10.80
2023-04-22T05:13:44.667Z,10.90
2023-04-22T05:16:12.737Z,11.10
2023-04-22T05:18:41.313Z,11.00
2023-04-22T05:21:08.069Z,11.10
2023-04-22T05:23:35.116Z,11.00
2023-04-22T05:26:03.022Z,11.00
2023-04-22T05:28:29.748Z,11.20
2023-04-22T05:30:57.614Z,11.40
2023-04-22T05:33:25.670Z,11.10
2023-04-22T05:35:53.768Z,11.30
2023-04-22T05:38:20.686Z,11.50
2023-04-22T05:40:47.893Z,11.70
2023-04-22T05:43:15.776Z,11.70
2023-04-22T05:45:42.999Z,12.00
2023-04-22T05:48:09.903Z,12.40
2023-04-22T05:50:37.842Z,12.30
2023-04-22T05:53:05.796Z,12.30
2023-04-22T05:55:32.531Z,12.40
2023-04-22T05:57:59.275Z,12.70
2023-04-22T06:00:26.479Z,13.20
2023-04-22T06:02:53.243Z,13.60
2023-04-22T06:05:20.488Z,14.10
2023-04-22T06:07:47.257Z,14.20
2023-04-22T06:10:14.230Z,14.60
2023-04-22T06:12:40.967Z,14.60
2023-04-22T06:15:09.434Z,14.50
2023-04-22T06:17:36.175Z,14.60
2023-04-22T06:20:03.721Z,14.90
2023-04-22T06:22:30.449Z,15.10
2023-04-22T06:24:59.454Z,15.30
2023-04-22T06:27:26.840Z,15.50
2023-04-22T06:29:53.547Z,15.60
2023-04-22T06:32:21.255Z,15.50
2023-04-22T06:34:48.557Z,15.90
2023-04-22T06:37:16.596Z,17.00
2023-04-22T06:39:43.783Z,17.80
2023-04-22T06:42:12.029Z,17.50
2023-04-22T06:44:38.790Z,17.80
2023-04-22T06:47:07.838Z,18.00
2023-04-22T06:49:38.445Z,18.50
2023-04-22T06:52:06.777Z,18.60
2023-04-22T06:54:33.706Z,18.70
2023-04-22T06:57:01.863Z,18.60
2023-04-22T06:59:28.558Z,18.70
2023-04-22T07:01:56.201Z,19.20
2023-04-22T07:04:23.485Z,20.60
2023-04-22T07:06:50.314Z,22.10
2023-04-22T07:09:17.425Z,24.10
2023-04-22T07:11:47.252Z,25.40
2023-04-22T07:14:18.378Z,26.00
2023-04-22T07:16:46.033Z,27.20
2023-04-22T07:19:12.910Z,28.50
2023-04-22T07:21:40.060Z,29.30
2023-04-22T07:24:07.007Z,28.80
2023-04-22T07:26:37.157Z,28.10
2023-04-22T07:29:07.828Z,29.50
2023-04-22T07:31:37.859Z,29.50
2023-04-22T07:34:05.095Z,31.00
2023-04-22T07:36:35.120Z,32.20
2023-04-22T07:39:01.927Z,31.90
2023-04-22T07:41:30.242Z,31.90
2023-04-22T07:43:56.956Z,31.10
2023-04-22T07:46:27.163Z,30.90
2023-04-22T07:48:54.085Z,32.00
2023-04-22T07:51:20.886Z,33.80
2023-04-22T07:53:47.614Z,34.30
2023-04-22T07:56:14.376Z,32.60
2023-04-22T07:58:41.077Z,31.80
2023-04-22T08:01:07.846Z,31.10
2023-04-22T08:03:36.033Z,30.90
2023-04-22T08:06:03.059Z,30.50
2023-04-22T08:08:29.754Z,28.90
2023-04-22T08:10:56.500Z,27.70
2023-04-22T08:13:33.260Z,28.80
2023-04-22T08:16:03.467Z,30.10
2023-04-22T08:18:30.268Z,31.20
2023-04-22T08:20:57.037Z,31.30
2023-04-22T08:23:24.363Z,30.80
2023-04-22T08:25:52.057Z,31.10
2023-04-22T08:28:20.355Z,31.50
2023-04-22T08:30:52.049Z,31.30
2023-04-22T08:33:21.847Z,32.20
2023-04-22T08:35:48.756Z,32.20
2023-04-22T08:38:16.148Z,31.50
2023-04-22T08:40:43.837Z,31.00
2023-04-22T08:43:11.834Z,31.10
2023-04-22T08:45:39.828Z,31.50
2023-04-22T08:48:09.568Z,30.90
2023-04-22T08:50:41.095Z,31.60
2023-04-22T08:53:07.963Z,33.00
2023-04-22T08:55:36.536Z,33.50
2023-04-22T08:58:06.167Z,33.60
2023-04-22T09:00:35.020Z,33.70
2023-04-22T09:03:03.289Z,31.10
2023-04-22T09:05:33.991Z,31.50
2023-04-22T09:08:02.588Z,30.20
2023-04-22T09:10:33.994Z,30.70
2023-04-22T09:13:04.832Z,30.20
2023-04-22T09:15:31.842Z,30.90
2023-04-22T09:17:59.129Z,30.10
2023-04-22T09:20:27.813Z,29.10
2023-04-22T09:22:55.948Z,28.50
2023-04-22T09:25:26.522Z,29.40
2023-04-22T09:27:55.909Z,27.70
2023-04-22T09:30:37.017Z,25.70
2023-04-22T09:33:06.086Z,24.40
2023-04-22T09:35:36.690Z,23.40
2023-04-22T09:38:09.566Z,22.30
2023-04-22T09:40:38.020Z,21.90
2023-04-22T09:43:08.123Z,21.00
2023-04-22T09:45:40.355Z,21.10
2023-04-22T09:48:15.595Z,21.10
2023-04-22T09:50:47.614Z,21.10
2023-04-22T09:53:17.834Z,21.20
2023-04-22T09:55:48.353Z,20.90
2023-04-22T09:58:17.830Z,20.80
2023-04-22T10:00:54.813Z,20.90
2023-04-22T10:03:21.933Z,20.80
2023-04-22T10:05:49.067Z,21.10
2023-04-22T10:08:17.630Z,20.70
2023-04-22T10:10:44.931Z,20.40
2023-04-22T10:13:12.295Z,20.60
2023-04-22T10:15:50.584Z,20.60
2023-04-22T10:18:22.032Z,20.40
2023-04-22T10:20:50.179Z,20.40
2023-04-22T10:23:22.348Z,20.50
2023-04-22T10:25:58.181Z,20.70
2023-04-22T10:28:30.505Z,20.50
2023-04-22T10:30:57.434Z,20.60
2023-04-22T10:33:24.180Z,20.60
2023-04-22T10:36:11.254Z,20.70
2023-04-22T10:38:53.465Z,20.60
2023-04-22T10:41:24.669Z,20.40
2023-04-22T10:44:05.657Z,20.30
2023-04-22T10:46:38.068Z,20.70
2023-04-22T10:49:13.309Z,20.90
2023-04-22T10:51:44.623Z,20.50
2023-04-22T10:54:36.567Z,20.40
2023-04-22T10:57:11.577Z,20.40
2023-04-22T10:59:56.352Z,20.30
2023-04-22T11:02:23.966Z,20.30
2023-04-22T11:04:55.096Z,20.50
2023-04-22T11:07:27.844Z,20.60
2023-04-22T11:10:07.817Z,20.60
2023-04-22T11:12:40.051Z,20.60
2023-04-22T11:15:08.793Z,20.50
2023-04-22T11:17:36.976Z,20.50
2023-04-22T11:20:05.239Z,20.60
2023-04-22T11:22:45.655Z,20.30
2023-04-22T11:25:13.374Z,20.20
2023-04-22T11:27:44.319Z,20.10
2023-04-22T11:30:21.158Z,20.30
2023-04-22T11:32:53.389Z,20.10
2023-04-22T11:35:27.007Z,19.90
2023-04-22T11:37:58.880Z,19.90
2023-04-22T11:40:31.210Z,19.80
2023-04-22T11:43:01.720Z,19.80
2023-04-22T11:45:34.630Z,20.00
2023-04-22T11:48:03.143Z,20.20
2023-04-22T11:50:36.027Z,20.30
2023-04-22T11:53:06.089Z,20.50
2023-04-22T11:55:35.609Z,20.50
2023-04-22T11:58:11.799Z,20.20
2023-04-22T12:00:38.661Z,20.80
2023-04-22T12:03:15.257Z,20.40
2023-04-22T12:05:50.304Z,20.60
2023-04-22T12:08:21.982Z,20.60
2023-04-22T12:10:51.552Z,20.60
2023-04-22T12:13:21.212Z,20.60
2023-04-22T12:15:48.559Z,20.50
2023-04-22T12:18:15.625Z,20.60
2023-04-22T12:20:43.121Z,20.60
2023-04-22T12:23:14.785Z,20.50
2023-04-22T12:25:43.368Z,20.70
2023-04-22T12:28:11.230Z,20.60
2023-04-22T12:30:38.022Z,20.40
2023-04-22T12:33:04.819Z,20.20
2023-04-22T12:35:31.943Z,20.20
2023-04-22T12:37:58.635Z,20.20
2023-04-22T12:40:25.754Z,20.10
2023-04-22T12:42:52.865Z,19.90
2023-04-22T12:45:19.705Z,20.20
2023-04-22T12:47:47.159Z,20.00
2023-04-22T12:50:15.404Z,20.20
2023-04-22T12:52:42.353Z,20.40
2023-04-22T12:55:09.222Z,20.30
2023-04-22T12:57:36.054Z,20.30
2023-04-22T13:00:03.501Z,20.20
2023-04-22T13:02:30.527Z,20.20
2023-04-22T13:04:57.736Z,20.30
2023-04-22T13:07:25.334Z,20.20
2023-04-22T13:09:52.128Z,20.10
2023-04-22T13:12:19.950Z,20.00
2023-04-22T13:14:47.116Z,20.10
2023-04-22T13:17:15.596Z,20.10
2023-04-22T13:19:42.513Z,20.10
2023-04-22T13:22:09.218Z,20.20
2023-04-22T13:24:41.247Z,20.00
2023-04-22T13:27:11.945Z,20.30
2023-04-22T13:30:12.943Z,20.20
2023-04-22T13:32:52.162Z,20.60
2023-04-22T13:35:27.387Z,20.30
2023-04-22T13:38:34.039Z,20.20
2023-04-22T13:41:23.458Z,20.20
2023-04-22T13:44:08.101Z,19.90
2023-04-22T13:49:49.383Z,20.00
2023-04-22T13:52:17.192Z,20.10
2023-04-22T13:54:44.110Z,19.70
2023-04-22T13:57:10.885Z,20.10
2023-04-22T13:59:40.416Z,20.10
2023-04-22T14:02:14.664Z,20.10
2023-04-22T14:04:41.446Z,20.10
2023-04-22T14:07:09.787Z,20.10
2023-04-22T14:09:40.286Z,19.90
2023-04-22T14:12:09.912Z,19.80
2023-04-22T14:14:37.221Z,20.50
2023-04-22T14:17:08.225Z,20.50
2023-04-22T14:19:39.100Z,20.10
2023-04-22T14:22:07.084Z,19.90
2023-04-22T14:24:33.910Z,19.90
2023-04-22T14:27:04.588Z,20.00
2023-04-22T14:29:32.862Z,19.80
2023-04-22T14:32:01.341Z,19.90
2023-04-22T14:34:29.317Z,19.80
2023-04-22T14:36:56.381Z,19.90
2023-04-22T14:39:24.608Z,20.10
2023-04-22T14:41:52.112Z,20.00
2023-04-22T14:44:19.280Z,20.00
2023-04-22T14:46:46.236Z,20.00
2023-04-22T14:49:14.805Z,19.80
2023-04-22T14:51:41.703Z,19.70
2023-04-22T14:54:11.130Z,19.60
2023-04-22T14:56:37.837Z,20.10
2023-04-22T14:59:05.277Z,19.90
2023-04-22T15:01:33.047Z,19.70
2023-04-22T15:04:00.262Z,19.60
2023-04-22T15:06:35.810Z,19.60
2023-04-22T15:09:07.234Z,19.60
2023-04-22T15:11:36.268Z,19.60
2023-04-22T15:14:09.033Z,19.60
2023-04-22T15:16:40.790Z,19.70
2023-04-22T15:19:09.208Z,19.80
2023-04-22T15:21:38.477Z,19.70
2023-04-22T15:24:07.764Z,19.70
2023-04-22T15:26:37.192Z,19.60
2023-04-22T15:29:04.124Z,19.90
2023-04-22T15:31:33.496Z,19.60
2023-04-22T15:34:01.562Z,19.50
2023-04-22T15:36:29.326Z,19.50
2023-04-22T15:39:01.566Z,19.40
2023-04-22T15:41:28.395Z,19.50
2023-04-22T15:43:56.534Z,19.60
2023-04-22T15:49:06.982Z,19.60
2023-04-22T15:51:36.148Z,19.40
2023-04-22T15:56:36.929Z,19.20
2023-04-22T15:59:05.019Z,19.40
2023-04-22T16:04:11.946Z,19.30
2023-04-22T16:06:39.048Z,19.50
2023-04-22T16:11:44.735Z,19.20
2023-04-22T16:14:13.591Z,19.30
2023-04-22T16:16:41.373Z,19.20
2023-04-22T16:19:09.710Z,19.30
2023-04-22T16:21:38.155Z,19.10
2023-04-22T16:24:10.049Z,19.00
2023-04-22T16:26:36.917Z,19.00
2023-04-22T16:29:04.272Z,19.00
2023-04-22T16:31:31.681Z,19.00
2023-04-22T16:33:59.292Z,19.00
2023-04-22T16:36:28.445Z,18.90
2023-04-22T16:38:57.839Z,18.80
2023-04-22T16:41:24.589Z,18.80
2023-04-22T16:43:51.544Z,18.80
2023-04-22T16:46:18.710Z,18.80
2023-04-22T16:48:45.957Z,18.70
2023-04-22T16:51:12.754Z,18.80
2023-04-22T16:53:39.541Z,18.70
2023-04-22T16:56:06.418Z,18.70
2023-04-22T16:58:33.225Z,18.60
2023-04-22T17:01:00.279Z,18.70
2023-04-22T17:03:27.299Z,18.50
2023-04-22T17:05:54.327Z,18.50
2023-04-22T17:08:21.106Z,18.50
2023-04-22T17:10:49.669Z,18.30
2023-04-22T17:13:16.951Z,18.40
2023-04-22T17:15:43.705Z,18.40
2023-04-22T17:18:10.737Z,18.60
2023-04-22T17:20:38.125Z,18.40
2023-04-22T17:23:05.043Z,18.40
2023-04-22T17:25:32.337Z,18.30
2023-04-22T17:27:59.157Z,18.20
2023-04-22T17:30:26.383Z,18.10
2023-04-22T17:32:55.326Z,18.00
2023-04-22T17:35:23.023Z,18.00
2023-04-22T17:37:50.796Z,18.00
2023-04-22T17:40:19.075Z,17.80
2023-04-22T17:42:46.633Z,17.80
2023-04-22T17:45:13.699Z,17.70
2023-04-22T17:47:42.018Z,17.60
2023-04-22T17:50:11.872Z,17.20
2023-04-22T17:52:39.708Z,17.50
2023-04-22T17:55:08.390Z,17.60
2023-04-22T17:57:37.070Z,17.40
2023-04-22T18:00:04.307Z,17.30
2023-04-22T18:02:31.618Z,17.10
2023-04-22T18:04:59.401Z,17.10
2023-04-22T18:07:27.764Z,17.00
2023-04-22T18:09:57.225Z,17.00
2023-04-22T18:12:30.643Z,16.90
2023-04-22T18:14:58.241Z,16.80
2023-04-22T18:17:25.700Z,16.70
2023-04-22T18:20:02.688Z,16.70
2023-04-22T18:22:39.548Z,16.50
2023-04-22T18:25:08.050Z,16.50
2023-04-22T18:27:35.327Z,16.50
2023-04-22T18:30:05.352Z,16.40
2023-04-22T18:32:32.216Z,16.40
2023-04-22T18:34:59.154Z,16.30
2023-04-22T18:37:30.037Z,16.20
2023-04-22T18:39:58.820Z,16.20
2023-04-22T18:42:27.699Z,16.20
2023-04-22T18:44:56.628Z,16.10
2023-04-22T18:47:23.632Z,16.10
2023-04-22T18:49:50.784Z,16.00
2023-04-22T18:52:17.827Z,16.10
2023-04-22T18:54:44.749Z,16.20
2023-04-22T18:57:11.787Z,15.90
2023-04-22T18:59:39.833Z,15.90
2023-04-22T19:02:09.344Z,15.90
2023-04-22T19:04:36.432Z,15.90
2023-04-22T19:07:03.302Z,15.80
2023-04-22T19:09:33.271Z,15.70
2023-04-22T19:12:00.773Z,15.60
2023-04-22T19:14:27.576Z,15.50
2023-04-22T19:16:54.373Z,15.70
2023-04-22T19:19:21.070Z,15.50
2023-04-22T19:21:48.049Z,15.50
2023-04-22T19:24:14.828Z,15.50
2023-04-22T19:26:41.496Z,15.40
2023-04-22T19:29:09.101Z,15.30
2023-04-22T19:31:36.142Z,15.30
2023-04-22T19:34:03.212Z,15.20
2023-04-22T19:36:29.935Z,15.20
2023-04-22T19:38:56.761Z,15.10
2023-04-22T19:41:24.127Z,15.20
2023-04-22T19:43:51.803Z,15.10
2023-04-22T19:46:18.982Z,15.10
2023-04-22T19:48:47.795Z,15.00
2023-04-22T19:51:14.990Z,15.00
2023-04-22T19:53:42.029Z,15.00
2023-04-22T19:56:09.918Z,14.80
2023-04-22T19:58:38.529Z,14.70
2023-04-22T20:01:05.472Z,14.80
2023-04-22T20:03:34.400Z,14.70
2023-04-22T20:06:01.759Z,14.70
2023-04-22T20:08:29.196Z,14.70
2023-04-22T20:10:58.223Z,14.70
2023-04-22T20:13:25.569Z,14.60
2023-04-22T20:15:52.731Z,14.50
2023-04-22T20:18:20.024Z,14.50
2023-04-22T20:20:51.528Z,14.50
2023-04-22T20:23:22.228Z,14.50
2023-04-22T20:25:50.897Z,14.40
2023-04-22T20:28:20.268Z,14.30
2023-04-22T20:30:47.181Z,14.30
2023-04-22T20:33:17.484Z,14.00
2023-04-22T20:35:46.113Z,14.00
2023-04-22T20:38:13.711Z,14.10
2023-04-22T20:40:44.141Z,14.10
2023-04-22T20:43:12.226Z,14.00
2023-04-22T20:45:40.100Z,13.80
2023-04-22T20:48:07.293Z,13.80
2023-04-22T20:50:34.245Z,13.90
2023-04-22T20:53:04.743Z,13.90
2023-04-22T20:55:31.743Z,13.90
2023-04-22T20:57:59.184Z,13.80
2023-04-22T21:00:26.320Z,13.80
2023-04-22T21:02:55.850Z,13.70
2023-04-22T21:05:22.908Z,13.80
2023-04-22T21:07:52.994Z,13.60
2023-04-22T21:10:20.846Z,13.50
2023-04-22T21:12:48.563Z,13.50
2023-04-22T21:15:15.643Z,13.50
2023-04-22T21:17:52.367Z,13.50
2023-04-22T21:20:21.873Z,13.50
2023-04-22T21:22:49.416Z,13.40
2023-04-22T21:25:21.558Z,13.40
2023-04-22T21:27:49.092Z,13.30
2023-04-22T21:30:16.293Z,13.40
2023-04-22T21:32:43.492Z,13.40
2023-04-22T21:35:10.505Z,13.40
2023-04-22T21:37:40.771Z,13.30
2023-04-22T21:40:11.439Z,13.40
2023-04-22T21:42:38.266Z,13.30
2023-04-22T21:45:05.524Z,13.30
2023-04-22T21:47:33.614Z,13.10
2023-04-22T21:50:00.784Z,13.30
2023-04-22T21:52:27.751Z,13.20
2023-04-22T21:54:56.118Z,13.10
2023-04-22T21:57:23.784Z,13.00
2023-04-22T21:59:50.465Z,13.00
2023-04-22T22:02:20.185Z,12.90
2023-04-22T22:04:47.172Z,13.00
2023-04-22T22:07:15.043Z,12.90
2023-04-22T22:09:43.296Z,13.00
2023-04-22T22:12:18.162Z,12.90
2023-04-22T22:14:45.112Z,12.90
2023-04-22T22:17:12.536Z,12.70
2023-04-22T22:19:39.275Z,12.70
2023-04-22T22:22:06.011Z,12.70
2023-04-22T22:24:32.739Z,12.70
2023-04-22T22:26:59.508Z,12.60
2023-04-22T22:29:26.332Z,12.60
2023-04-22T22:31:53.051Z,12.60
2023-04-22T22:34:19.776Z,12.50
2023-04-22T22:36:47.219Z,12.50
2023-04-22T22:39:16.032Z,12.40
2023-04-22T22:41:43.955Z,12.40
2023-04-22T22:44:14.215Z,12.30
2023-04-22T22:46:41.093Z,12.20
2023-04-22T22:49:08.382Z,12.20
2023-04-22T22:51:37.943Z,12.30
2023-04-22T22:54:05.522Z,12.10
2023-04-22T22:56:32.890Z,12.00
2023-04-22T22:59:01.247Z,12.00
2023-04-22T23:01:28.174Z,11.90
2023-04-22T23:03:55.890Z,12.00
2023-04-22T23:06:23.708Z,11.90
2023-04-22T23:08:51.956Z,11.90
2023-04-22T23:11:18.694Z,11.80
2023-04-22T23:13:45.934Z,11.80
2023-04-22T23:16:13.720Z,11.70
2023-04-22T23:18:41.925Z,11.80
2023-04-22T23:21:09.828Z,11.80
2023-04-22T23:23:39.857Z,11.70
2023-04-22T23:26:08.063Z,11.70
2023-04-22T23:28:35.204Z,11.60
2023-04-22T23:31:07.293Z,11.60
2023-04-22T23:33:38.755Z,11.60
2023-04-22T23:36:13.074Z,11.50
2023-04-22T23:38:41.682Z,11.50
2023-04-22T23:41:08.384Z,11.40
2023-04-22T23:43:35.835Z,11.40
2023-04-22T23:46:03.012Z,11.40
2023-04-22T23:48:30.757Z,11.40
2023-04-22T23:50:58.205Z,11.40
2023-04-22T23:53:25.298Z,11.40
2023-04-22T23:55:52.262Z,11.30
2023-04-22T23:58:19.492Z,11.20
